sensor_id;sensor_type;location;lat;lon;timestamp;pressure;altitude;pressure_sealevel;temperature;humidity
65666;BME280;52365;47.464;18.976;2022-09-03T00:00:10;99854.13;;;15.71;71.55
65666;BME280;52365;47.464;18.976;2022-09-03T00:00:51;99860.53;;;15.68;71.61
65666;BME280;52365;47.464;18.976;2022-09-03T00:01:56;99859.53;;;15.66;71.75
65666;BME280;52365;47.464;18.976;2022-09-03T00:02:42;99862.44;;;15.62;71.96
65666;BME280;52365;47.464;18.976;2022-09-03T00:03:29;99857.50;;;15.60;72.03
65666;BME280;52365;47.464;18.976;2022-09-03T00:04:23;99860.03;;;15.64;71.87
65666;BME280;52365;47.464;18.976;2022-09-03T00:05:44;99863.72;;;15.67;71.83
65666;BME280;52365;47.464;18.976;2022-09-03T00:06:42;99858.78;;;15.65;71.84
65666;BME280;52365;47.464;18.976;2022-09-03T00:07:27;99865.00;;;15.71;71.68
65666;BME280;52365;47.464;18.976;2022-09-03T00:08:20;99856.28;;;15.61;71.34
65666;BME280;52365;47.464;18.976;2022-09-03T00:09:16;99868.81;;;15.53;71.69
65666;BME280;52365;47.464;18.976;2022-09-03T00:09:59;99861.41;;;15.54;71.97
65666;BME280;52365;47.464;18.976;2022-09-03T00:11:40;99851.03;;;15.52;72.02
65666;BME280;52365;47.464;18.976;2022-09-03T00:12:35;99862.13;;;15.49;72.22
65666;BME280;52365;47.464;18.976;2022-09-03T00:13:19;99860.38;;;15.46;72.20
65666;BME280;52365;47.464;18.976;2022-09-03T00:14:06;99861.88;;;15.47;72.10
65666;BME280;52365;47.464;18.976;2022-09-03T00:15:25;99854.97;;;15.46;72.37
65666;BME280;52365;47.464;18.976;2022-09-03T00:16:05;99855.94;;;15.48;72.38
65666;BME280;52365;47.464;18.976;2022-09-03T00:16:58;99853.22;;;15.48;72.36
65666;BME280;52365;47.464;18.976;2022-09-03T00:18:00;99865.81;;;15.46;72.27
65666;BME280;52365;47.464;18.976;2022-09-03T00:18:45;99860.59;;;15.42;72.38
65666;BME280;52365;47.464;18.976;2022-09-03T00:19:27;99855.41;;;15.39;72.40
65666;BME280;52365;47.464;18.976;2022-09-03T00:20:18;99857.09;;;15.36;72.51
65666;BME280;52365;47.464;18.976;2022-09-03T00:21:05;99868.72;;;15.36;72.54
65666;BME280;52365;47.464;18.976;2022-09-03T00:21:46;99866.22;;;15.33;72.71
65666;BME280;52365;47.464;18.976;2022-09-03T00:22:29;99858.81;;;15.33;72.83
65666;BME280;52365;47.464;18.976;2022-09-03T00:23:11;99865.22;;;15.30;72.79
65666;BME280;52365;47.464;18.976;2022-09-03T00:23:50;99867.16;;;15.24;72.57
65666;BME280;52365;47.464;18.976;2022-09-03T00:24:30;99868.38;;;15.23;72.64
65666;BME280;52365;47.464;18.976;2022-09-03T00:25:12;99862.94;;;15.23;72.75
65666;BME280;52365;47.464;18.976;2022-09-03T00:26:51;99863.19;;;15.25;72.94
65666;BME280;52365;47.464;18.976;2022-09-03T00:27:32;99864.72;;;15.32;72.80
65666;BME280;52365;47.464;18.976;2022-09-03T00:28:16;99850.94;;;15.35;72.70
65666;BME280;52365;47.464;18.976;2022-09-03T00:28:58;99857.09;;;15.36;72.61
65666;BME280;52365;47.464;18.976;2022-09-03T00:29:43;99868.44;;;15.34;72.74
65666;BME280;52365;47.464;18.976;2022-09-03T00:30:20;99867.44;;;15.32;72.72
65666;BME280;52365;47.464;18.976;2022-09-03T00:31:08;99860.00;;;15.27;72.57
65666;BME280;52365;47.464;18.976;2022-09-03T00:32:00;99857.25;;;15.21;72.57
65666;BME280;52365;47.464;18.976;2022-09-03T00:33:26;99867.78;;;15.14;72.96
65666;BME280;52365;47.464;18.976;2022-09-03T00:34:14;99859.41;;;15.11;72.93
65666;BME280;52365;47.464;18.976;2022-09-03T00:34:56;99855.66;;;15.09;73.07
65666;BME280;52365;47.464;18.976;2022-09-03T00:35:45;99858.66;;;15.11;73.05
65666;BME280;52365;47.464;18.976;2022-09-03T00:36:33;99856.69;;;15.11;72.98
65666;BME280;52365;47.464;18.976;2022-09-03T00:37:10;99866.28;;;15.07;72.79
65666;BME280;52365;47.464;18.976;2022-09-03T00:37:46;99866.97;;;15.02;72.57
65666;BME280;52365;47.464;18.976;2022-09-03T00:38:23;99853.66;;;15.04;72.59
65666;BME280;52365;47.464;18.976;2022-09-03T00:39:00;99860.56;;;15.05;72.55
65666;BME280;52365;47.464;18.976;2022-09-03T00:39:37;99852.44;;;15.05;72.52
65666;BME280;52365;47.464;18.976;2022-09-03T00:43:14;99861.09;;;15.09;72.72
65666;BME280;52365;47.464;18.976;2022-09-03T00:47:12;99862.16;;;15.17;72.67
65666;BME280;52365;47.464;18.976;2022-09-03T00:50:55;99859.72;;;15.19;72.62
65666;BME280;52365;47.464;18.976;2022-09-03T00:55:37;99866.69;;;15.31;71.87
65666;BME280;52365;47.464;18.976;2022-09-03T00:56:33;99865.16;;;15.19;71.64
65666;BME280;52365;47.464;18.976;2022-09-03T00:57:19;99868.00;;;15.10;72.14
65666;BME280;52365;47.464;18.976;2022-09-03T00:59:21;99866.81;;;15.11;72.60
65666;BME280;52365;47.464;18.976;2022-09-03T01:00:10;99865.56;;;15.12;72.58
65666;BME280;52365;47.464;18.976;2022-09-03T01:00:48;99867.28;;;15.09;72.73
65666;BME280;52365;47.464;18.976;2022-09-03T01:02:24;99866.81;;;15.11;72.27
65666;BME280;52365;47.464;18.976;2022-09-03T01:06:18;99874.06;;;14.94;72.68
65666;BME280;52365;47.464;18.976;2022-09-03T01:13:08;99878.22;;;14.89;73.02
65666;BME280;52365;47.464;18.976;2022-09-03T01:15:07;99879.66;;;14.84;73.23
65666;BME280;52365;47.464;18.976;2022-09-03T01:15:23;99875.19;;;14.81;73.16
65666;BME280;52365;47.464;18.976;2022-09-03T01:18:30;99880.94;;;14.89;72.79
65666;BME280;52365;47.464;18.976;2022-09-03T01:20:28;99884.06;;;14.82;72.88
65666;BME280;52365;47.464;18.976;2022-09-03T01:27:44;99891.22;;;14.79;73.60
65666;BME280;52365;47.464;18.976;2022-09-03T01:28:22;99891.72;;;14.83;73.53
65666;BME280;52365;47.464;18.976;2022-09-03T01:30:32;99893.47;;;14.86;73.27
65666;BME280;52365;47.464;18.976;2022-09-03T01:31:32;99882.84;;;14.83;73.29
65666;BME280;52365;47.464;18.976;2022-09-03T01:33:29;99885.63;;;14.89;73.26
65666;BME280;52365;47.464;18.976;2022-09-03T01:34:49;99887.53;;;14.82;73.23
65666;BME280;52365;47.464;18.976;2022-09-03T01:35:47;99885.25;;;14.75;73.50
65666;BME280;52365;47.464;18.976;2022-09-03T01:36:36;99892.91;;;14.77;73.51
65666;BME280;52365;47.464;18.976;2022-09-03T01:38:56;99884.97;;;14.73;73.44
65666;BME280;52365;47.464;18.976;2022-09-03T01:42:11;99890.06;;;14.66;73.53
65666;BME280;52365;47.464;18.976;2022-09-03T01:44:55;99884.47;;;14.75;73.12
65666;BME280;52365;47.464;18.976;2022-09-03T01:49:56;99890.97;;;14.57;73.97
65666;BME280;52365;47.464;18.976;2022-09-03T01:50:52;99884.53;;;14.54;74.40
65666;BME280;52365;47.464;18.976;2022-09-03T01:51:32;99891.03;;;14.63;74.25
65666;BME280;52365;47.464;18.976;2022-09-03T01:52:15;99884.88;;;14.62;74.26
65666;BME280;52365;47.464;18.976;2022-09-03T01:53:02;99889.53;;;14.61;74.18
65666;BME280;52365;47.464;18.976;2022-09-03T01:54:41;99890.06;;;14.66;73.94
65666;BME280;52365;47.464;18.976;2022-09-03T01:55:46;99895.59;;;14.77;73.70
65666;BME280;52365;47.464;18.976;2022-09-03T01:58:25;99887.63;;;14.68;73.26
65666;BME280;52365;47.464;18.976;2022-09-03T01:59:49;99877.94;;;14.61;73.14
65666;BME280;52365;47.464;18.976;2022-09-03T02:00:29;99884.59;;;14.60;73.10
65666;BME280;52365;47.464;18.976;2022-09-03T02:01:13;99892.19;;;14.56;73.37
65666;BME280;52365;47.464;18.976;2022-09-03T02:02:14;99885.28;;;14.55;73.56
65666;BME280;52365;47.464;18.976;2022-09-03T02:03:00;99895.37;;;14.54;73.57
65666;BME280;52365;47.464;18.976;2022-09-03T02:03:42;99886.97;;;14.52;73.55
65666;BME280;52365;47.464;18.976;2022-09-03T02:04:23;99887.50;;;14.56;73.33
65666;BME280;52365;47.464;18.976;2022-09-03T02:05:15;99886.75;;;14.56;73.28
65666;BME280;52365;47.464;18.976;2022-09-03T02:05:52;99896.13;;;14.55;73.31
65666;BME280;52365;47.464;18.976;2022-09-03T02:06:29;99899.31;;;14.53;73.34
65666;BME280;52365;47.464;18.976;2022-09-03T02:07:06;99900.06;;;14.54;73.47
65666;BME280;52365;47.464;18.976;2022-09-03T02:07:53;99894.91;;;14.56;73.50
65666;BME280;52365;47.464;18.976;2022-09-03T02:08:31;99899.31;;;14.53;73.55
65666;BME280;52365;47.464;18.976;2022-09-03T02:09:07;99891.94;;;14.54;73.59
65666;BME280;52365;47.464;18.976;2022-09-03T02:09:43;99891.72;;;14.57;73.58
65666;BME280;52365;47.464;18.976;2022-09-03T02:10:22;99894.44;;;14.57;73.53
65666;BME280;52365;47.464;18.976;2022-09-03T02:11:00;99891.97;;;14.59;73.48
65666;BME280;52365;47.464;18.976;2022-09-03T02:11:37;99892.94;;;14.56;73.54
65666;BME280;52365;47.464;18.976;2022-09-03T02:12:15;99894.44;;;14.57;73.63
65666;BME280;52365;47.464;18.976;2022-09-03T02:13:03;99892.69;;;14.54;73.81
65666;BME280;52365;47.464;18.976;2022-09-03T02:13:44;99881.34;;;14.56;73.89
65666;BME280;52365;47.464;18.976;2022-09-03T02:14:24;99887.50;;;14.56;73.86
65666;BME280;52365;47.464;18.976;2022-09-03T02:15:06;99890.69;;;14.55;73.83
65666;BME280;52365;47.464;18.976;2022-09-03T02:15:46;99885.28;;;14.55;73.86
65666;BME280;52365;47.464;18.976;2022-09-03T02:16:28;99881.34;;;14.56;73.77
65666;BME280;52365;47.464;18.976;2022-09-03T02:17:06;99885.53;;;14.57;73.79
65666;BME280;52365;47.464;18.976;2022-09-03T02:17:44;99888.31;;;14.63;73.76
65666;BME280;52365;47.464;18.976;2022-09-03T02:18:32;99886.34;;;14.63;73.67
65666;BME280;52365;47.464;18.976;2022-09-03T02:19:13;99894.94;;;14.61;73.64
65666;BME280;52365;47.464;18.976;2022-09-03T02:19:52;99895.94;;;14.58;73.71
65666;BME280;52365;47.464;18.976;2022-09-03T02:20:28;99890.69;;;14.55;73.86
65666;BME280;52365;47.464;18.976;2022-09-03T02:21:06;99896.81;;;14.50;73.80
65666;BME280;52365;47.464;18.976;2022-09-03T02:21:53;99904.47;;;14.51;73.86
65666;BME280;52365;47.464;18.976;2022-09-03T02:22:31;99902.50;;;14.52;74.05
65666;BME280;52365;47.464;18.976;2022-09-03T02:23:08;99903.25;;;14.52;73.82
65666;BME280;52365;47.464;18.976;2022-09-03T02:23:44;99897.06;;;14.52;73.62
65666;BME280;52365;47.464;18.976;2022-09-03T02:24:22;99900.53;;;14.52;73.51
65666;BME280;52365;47.464;18.976;2022-09-03T02:24:59;99900.28;;;14.50;73.53
65666;BME280;52365;47.464;18.976;2022-09-03T02:25:40;99900.75;;;14.49;73.62
65666;BME280;52365;47.464;18.976;2022-09-03T02:26:21;99898.97;;;14.46;73.72
65666;BME280;52365;47.464;18.976;2022-09-03T02:26:57;99891.66;;;14.52;73.58
65666;BME280;52365;47.464;18.976;2022-09-03T02:27:33;99902.56;;;14.57;73.41
65666;BME280;52365;47.464;18.976;2022-09-03T02:28:10;99890.69;;;14.55;73.42
65666;BME280;52365;47.464;18.976;2022-09-03T02:28:47;99899.78;;;14.52;73.48
65666;BME280;52365;47.464;18.976;2022-09-03T02:29:24;99898.09;;;14.54;73.57
65666;BME280;52365;47.464;18.976;2022-09-03T02:30:00;99899.88;;;14.57;73.45
65666;BME280;52365;47.464;18.976;2022-09-03T02:30:36;99897.34;;;14.54;73.41
65666;BME280;52365;47.464;18.976;2022-09-03T02:31:12;99898.31;;;14.51;73.59
65666;BME280;52365;47.464;18.976;2022-09-03T02:31:49;99902.13;;;14.44;73.77
65666;BME280;52365;47.464;18.976;2022-09-03T02:32:25;99893.75;;;14.42;74.12
65666;BME280;52365;47.464;18.976;2022-09-03T02:33:02;99897.19;;;14.43;74.22
65666;BME280;52365;47.464;18.976;2022-09-03T02:33:40;99896.06;;;14.49;73.92
65666;BME280;52365;47.464;18.976;2022-09-03T02:34:17;99900.53;;;14.52;73.56
65666;BME280;52365;47.464;18.976;2022-09-03T02:34:53;99894.66;;;14.54;73.22
65666;BME280;52365;47.464;18.976;2022-09-03T02:35:29;99897.28;;;14.48;73.29
65666;BME280;52365;47.464;18.976;2022-09-03T02:36:09;99895.97;;;14.44;73.56
65666;BME280;52365;47.464;18.976;2022-09-03T02:36:46;99901.34;;;14.38;73.38
65666;BME280;52365;47.464;18.976;2022-09-03T02:37:22;99894.91;;;14.35;73.24
65666;BME280;52365;47.464;18.976;2022-09-03T02:38:09;99892.84;;;14.30;73.16
65666;BME280;52365;47.464;18.976;2022-09-03T02:38:45;99897.28;;;14.28;73.45
65666;BME280;52365;47.464;18.976;2022-09-03T02:39:22;99906.62;;;14.27;73.54
65666;BME280;52365;47.464;18.976;2022-09-03T02:39:58;99892.31;;;14.26;73.63
65666;BME280;52365;47.464;18.976;2022-09-03T02:40:34;99896.25;;;14.25;73.57
65666;BME280;52365;47.464;18.976;2022-09-03T02:41:10;99901.41;;;14.23;73.59
65666;BME280;52365;47.464;18.976;2022-09-03T02:41:53;99899.25;;;14.27;73.68
65666;BME280;52365;47.464;18.976;2022-09-03T02:42:30;99889.59;;;14.26;73.78
65666;BME280;52365;47.464;18.976;2022-09-03T02:43:14;99892.59;;;14.28;73.72
65666;BME280;52365;47.464;18.976;2022-09-03T02:44:00;99886.25;;;14.31;73.77
65666;BME280;52365;47.464;18.976;2022-09-03T02:44:43;99893.81;;;14.27;73.40
65666;BME280;52365;47.464;18.976;2022-09-03T02:45:26;99896.94;;;14.41;73.21
65666;BME280;52365;47.464;18.976;2022-09-03T02:46:04;99890.66;;;14.49;72.91
65666;BME280;52365;47.464;18.976;2022-09-03T02:46:49;99891.97;;;14.59;72.58
65666;BME280;52365;47.464;18.976;2022-09-03T02:47:30;99894.66;;;14.54;72.43
65666;BME280;52365;47.464;18.976;2022-09-03T02:48:08;99889.34;;;14.45;72.67
65666;BME280;52365;47.464;18.976;2022-09-03T02:48:45;99892.72;;;14.40;72.99
65666;BME280;52365;47.464;18.976;2022-09-03T02:49:21;99889.75;;;14.38;73.14
65666;BME280;52365;47.464;18.976;2022-09-03T02:49:57;99895.13;;;14.32;73.45
65666;BME280;52365;47.464;18.976;2022-09-03T02:50:39;99898.56;;;14.32;73.65
65666;BME280;52365;47.464;18.976;2022-09-03T02:51:16;99895.37;;;14.34;73.84
65666;BME280;52365;47.464;18.976;2022-09-03T02:51:57;99893.94;;;14.39;73.43
65666;BME280;52365;47.464;18.976;2022-09-03T02:52:35;99893.69;;;14.36;73.29
65666;BME280;52365;47.464;18.976;2022-09-03T02:53:12;99895.84;;;14.32;73.45
65666;BME280;52365;47.464;18.976;2022-09-03T02:53:48;99887.72;;;14.32;73.62
65666;BME280;52365;47.464;18.976;2022-09-03T02:54:24;99895.44;;;14.40;73.58
65666;BME280;52365;47.464;18.976;2022-09-03T02:55:00;99909.47;;;14.38;73.56
65666;BME280;52365;47.464;18.976;2022-09-03T02:55:36;99899.56;;;14.35;73.75
65666;BME280;52365;47.464;18.976;2022-09-03T02:56:12;99899.78;;;14.31;73.93
65666;BME280;52365;47.464;18.976;2022-09-03T02:56:48;99902.28;;;14.35;73.97
65666;BME280;52365;47.464;18.976;2022-09-03T02:57:24;99906.50;;;14.36;73.92
65666;BME280;52365;47.464;18.976;2022-09-03T02:58:00;99899.56;;;14.35;73.93
65666;BME280;52365;47.464;18.976;2022-09-03T02:58:36;99900.34;;;14.35;73.93
65666;BME280;52365;47.464;18.976;2022-09-03T02:59:13;99905.97;;;14.32;74.01
65666;BME280;52365;47.464;18.976;2022-09-03T02:59:49;99898.50;;;14.27;74.10
65666;BME280;52365;47.464;18.976;2022-09-03T03:00:25;99902.63;;;14.22;74.12
65666;BME280;52365;47.464;18.976;2022-09-03T03:01:03;99896.44;;;14.22;74.07
65666;BME280;52365;47.464;18.976;2022-09-03T03:01:40;99898.72;;;14.23;74.04
65666;BME280;52365;47.464;18.976;2022-09-03T03:02:16;99902.63;;;14.22;74.06
65666;BME280;52365;47.464;18.976;2022-09-03T03:02:54;99896.00;;;14.23;74.11
65666;BME280;52365;47.464;18.976;2022-09-03T03:03:30;99897.97;;;14.23;74.12
65666;BME280;52365;47.464;18.976;2022-09-03T03:04:06;99898.16;;;14.19;74.17
65666;BME280;52365;47.464;18.976;2022-09-03T03:04:42;99899.16;;;14.22;74.19
65666;BME280;52365;47.464;18.976;2022-09-03T03:05:25;99896.75;;;14.24;74.09
65666;BME280;52365;47.464;18.976;2022-09-03T03:06:04;99895.25;;;14.23;74.11
65666;BME280;52365;47.464;18.976;2022-09-03T03:06:41;99896.44;;;14.22;74.24
65666;BME280;52365;47.464;18.976;2022-09-03T03:07:17;99892.19;;;14.15;73.93
65666;BME280;52365;47.464;18.976;2022-09-03T03:07:53;99895.59;;;14.10;73.87
65666;BME280;52365;47.464;18.976;2022-09-03T03:08:30;99889.19;;;14.13;74.00
65666;BME280;52365;47.464;18.976;2022-09-03T03:09:09;99889.75;;;14.17;74.09
65666;BME280;52365;47.464;18.976;2022-09-03T03:09:45;99889.75;;;14.17;74.09
65666;BME280;52365;47.464;18.976;2022-09-03T03:10:21;99893.69;;;14.16;74.10
65666;BME280;52365;47.464;18.976;2022-09-03T03:10:57;99896.13;;;14.14;74.15
65666;BME280;52365;47.464;18.976;2022-09-03T03:11:34;99888.41;;;14.07;73.98
65666;BME280;52365;47.464;18.976;2022-09-03T03:12:12;99890.38;;;14.06;73.88
65666;BME280;52365;47.464;18.976;2022-09-03T03:12:48;99891.09;;;14.07;73.96
65666;BME280;52365;47.464;18.976;2022-09-03T03:13:29;99894.31;;;14.05;73.94
65666;BME280;52365;47.464;18.976;2022-09-03T03:14:05;99888.41;;;14.07;73.96
65666;BME280;52365;47.464;18.976;2022-09-03T03:14:42;99894.06;;;14.09;74.08
65666;BME280;52365;47.464;18.976;2022-09-03T03:15:18;99888.19;;;14.10;74.13
65666;BME280;52365;47.464;18.976;2022-09-03T03:15:56;99896.41;;;14.16;74.07
65666;BME280;52365;47.464;18.976;2022-09-03T03:16:32;99903.66;;;14.25;73.73
65666;BME280;52365;47.464;18.976;2022-09-03T03:17:08;99894.44;;;14.17;73.62
65666;BME280;52365;47.464;18.976;2022-09-03T03:17:44;99893.44;;;14.14;73.74
65666;BME280;52365;47.464;18.976;2022-09-03T03:18:20;99897.06;;;14.11;74.12
65666;BME280;52365;47.464;18.976;2022-09-03T03:18:57;99899.50;;;14.09;74.34
65666;BME280;52365;47.464;18.976;2022-09-03T03:19:33;99892.88;;;14.10;74.37
65666;BME280;52365;47.464;18.976;2022-09-03T03:20:09;99894.56;;;14.07;74.28
65666;BME280;52365;47.464;18.976;2022-09-03T03:20:45;99893.00;;;14.01;74.52
65666;BME280;52365;47.464;18.976;2022-09-03T03:21:23;99897.47;;;14.04;74.64
65666;BME280;52365;47.464;18.976;2022-09-03T03:21:59;99899.91;;;14.02;74.68
65666;BME280;52365;47.464;18.976;2022-09-03T03:22:35;99903.09;;;14.00;74.51
65666;BME280;52365;47.464;18.976;2022-09-03T03:23:11;99889.28;;;13.98;74.38
65666;BME280;52365;47.464;18.976;2022-09-03T03:23:47;99899.09;;;13.96;74.43
65666;BME280;52365;47.464;18.976;2022-09-03T03:24:24;99897.16;;;13.96;74.44
65666;BME280;52365;47.464;18.976;2022-09-03T03:25:00;99899.84;;;13.96;74.40
65666;BME280;52365;47.464;18.976;2022-09-03T03:25:37;99900.06;;;13.93;74.37
65666;BME280;52365;47.464;18.976;2022-09-03T03:26:15;99907.22;;;13.96;74.42
65666;BME280;52365;47.464;18.976;2022-09-03T03:26:55;99910.22;;;13.98;74.41
65666;BME280;52365;47.464;18.976;2022-09-03T03:27:34;99906.00;;;13.97;74.41
65666;BME280;52365;47.464;18.976;2022-09-03T03:28:16;99909.72;;;13.99;74.45
65666;BME280;52365;47.464;18.976;2022-09-03T03:28:58;99911.44;;;13.97;74.37
65666;BME280;52365;47.464;18.976;2022-09-03T03:29:35;99910.22;;;13.98;74.25
65666;BME280;52365;47.464;18.976;2022-09-03T03:30:12;99906.00;;;13.97;74.41
65666;BME280;52365;47.464;18.976;2022-09-03T03:30:48;99906.94;;;13.94;74.47
65666;BME280;52365;47.464;18.976;2022-09-03T03:31:26;99910.59;;;13.91;74.54
65666;BME280;52365;47.464;18.976;2022-09-03T03:32:02;99906.69;;;13.92;74.46
65666;BME280;52365;47.464;18.976;2022-09-03T03:32:38;99907.69;;;13.94;74.43
65666;BME280;52365;47.464;18.976;2022-09-03T03:33:15;99909.19;;;13.95;74.48
65666;BME280;52365;47.464;18.976;2022-09-03T03:33:55;99913.59;;;13.93;74.60
65666;BME280;52365;47.464;18.976;2022-09-03T03:34:32;99905.91;;;13.91;74.71
65666;BME280;52365;47.464;18.976;2022-09-03T03:35:08;99913.03;;;13.89;74.50
65666;BME280;52365;47.464;18.976;2022-09-03T03:35:46;99914.47;;;13.84;74.38
65666;BME280;52365;47.464;18.976;2022-09-03T03:36:24;99916.44;;;13.83;74.37
65666;BME280;52365;47.464;18.976;2022-09-03T03:37:00;99915.69;;;13.83;74.28
65666;BME280;52365;47.464;18.976;2022-09-03T03:37:36;99909.78;;;13.84;74.22
65666;BME280;52365;47.464;18.976;2022-09-03T03:38:12;99915.94;;;13.85;74.26
65666;BME280;52365;47.464;18.976;2022-09-03T03:38:52;99910.78;;;13.87;74.35
65666;BME280;52365;47.464;18.976;2022-09-03T03:39:28;99912.69;;;13.81;74.61
65666;BME280;52365;47.464;18.976;2022-09-03T03:40:05;99916.81;;;13.76;74.92
65666;BME280;52365;47.464;18.976;2022-09-03T03:40:42;99918.28;;;13.77;75.07
65666;BME280;52365;47.464;18.976;2022-09-03T03:41:22;99908.75;;;13.82;75.17
65666;BME280;52365;47.464;18.976;2022-09-03T03:41:59;99910.03;;;13.86;75.10
65666;BME280;52365;47.464;18.976;2022-09-03T03:42:35;99911.34;;;13.91;75.02
65666;BME280;52365;47.464;18.976;2022-09-03T03:43:12;99916.09;;;13.96;74.87
65666;BME280;52365;47.464;18.976;2022-09-03T03:43:52;99910.22;;;13.98;74.90
65666;BME280;52365;47.464;18.976;2022-09-03T03:44:29;99911.69;;;13.99;74.88
65666;BME280;52365;47.464;18.976;2022-09-03T03:45:06;99921.31;;;14.00;74.87
65666;BME280;52365;47.464;18.976;2022-09-03T03:45:43;99913.91;;;14.00;74.88
65666;BME280;52365;47.464;18.976;2022-09-03T03:46:19;99913.91;;;14.00;74.82
65666;BME280;52365;47.464;18.976;2022-09-03T03:46:56;99913.91;;;14.00;74.82
65666;BME280;52365;47.464;18.976;2022-09-03T03:47:32;99919.34;;;14.00;74.81
65666;BME280;52365;47.464;18.976;2022-09-03T03:48:08;99920.38;;;14.03;74.81
65666;BME280;52365;47.464;18.976;2022-09-03T03:48:46;99912.97;;;14.03;74.71
65666;BME280;52365;47.464;18.976;2022-09-03T03:49:23;99920.84;;;14.01;74.66
65666;BME280;52365;47.464;18.976;2022-09-03T03:49:59;99914.41;;;13.99;74.81
65666;BME280;52365;47.464;18.976;2022-09-03T03:50:35;99914.69;;;14.01;74.86
65666;BME280;52365;47.464;18.976;2022-09-03T03:51:12;99914.69;;;14.01;74.70
65666;BME280;52365;47.464;18.976;2022-09-03T03:51:48;99915.81;;;13.94;74.40
65666;BME280;52365;47.464;18.976;2022-09-03T03:52:25;99912.84;;;13.92;74.60
65666;BME280;52365;47.464;18.976;2022-09-03T03:53:01;99925.84;;;13.88;74.84
65666;BME280;52365;47.464;18.976;2022-09-03T03:53:38;99911.28;;;13.85;74.98
65666;BME280;52365;47.464;18.976;2022-09-03T03:54:14;99920.88;;;13.86;75.09
65666;BME280;52365;47.464;18.976;2022-09-03T03:54:51;99912.31;;;13.88;75.04
65666;BME280;52365;47.464;18.976;2022-09-03T03:55:27;99912.75;;;13.86;74.89
65666;BME280;52365;47.464;18.976;2022-09-03T03:56:06;99917.91;;;13.84;74.89
65666;BME280;52365;47.464;18.976;2022-09-03T03:56:44;99921.09;;;13.83;75.01
65666;BME280;52365;47.464;18.976;2022-09-03T03:57:21;99916.06;;;13.76;74.86
65666;BME280;52365;47.464;18.976;2022-09-03T03:57:57;99922.78;;;13.80;74.84
65666;BME280;52365;47.464;18.976;2022-09-03T03:58:34;99921.97;;;13.95;74.64
65666;BME280;52365;47.464;18.976;2022-09-03T03:59:10;99919.69;;;14.08;74.18
65666;BME280;52365;47.464;18.976;2022-09-03T03:59:46;99923.56;;;14.22;73.65
65666;BME280;52365;47.464;18.976;2022-09-03T04:00:23;99918.81;;;14.17;73.50
65666;BME280;52365;47.464;18.976;2022-09-03T04:01:07;99921.47;;;14.11;73.51
65666;BME280;52365;47.464;18.976;2022-09-03T04:01:43;99930.28;;;14.06;73.68
65666;BME280;52365;47.464;18.976;2022-09-03T04:02:19;99922.81;;;14.01;73.84
65666;BME280;52365;47.464;18.976;2022-09-03T04:02:58;99929.19;;;13.98;74.10
65666;BME280;52365;47.464;18.976;2022-09-03T04:03:35;99923.47;;;13.96;74.35
65666;BME280;52365;47.464;18.976;2022-09-03T04:04:11;99928.25;;;14.01;74.15
65666;BME280;52365;47.464;18.976;2022-09-03T04:04:47;99928.31;;;14.06;73.97
65666;BME280;52365;47.464;18.976;2022-09-03T04:05:23;99924.56;;;14.04;73.88
65666;BME280;52365;47.464;18.976;2022-09-03T04:06:00;99929.44;;;14.00;73.93
65666;BME280;52365;47.464;18.976;2022-09-03T04:06:37;99929.84;;;13.93;74.06
65666;BME280;52365;47.464;18.976;2022-09-03T04:07:13;99917.97;;;13.90;74.17
65666;BME280;52365;47.464;18.976;2022-09-03T04:07:49;99937.44;;;13.89;74.31
65666;BME280;52365;47.464;18.976;2022-09-03T04:08:26;99928.56;;;13.88;74.29
65666;BME280;52365;47.464;18.976;2022-09-03T04:09:02;99926.03;;;13.84;74.25
65666;BME280;52365;47.464;18.976;2022-09-03T04:09:38;99929.97;;;13.83;74.29
65666;BME280;52365;47.464;18.976;2022-09-03T04:10:15;99934.66;;;13.83;74.40
65666;BME280;52365;47.464;18.976;2022-09-03T04:10:51;99930.91;;;13.80;74.59
65666;BME280;52365;47.464;18.976;2022-09-03T04:11:27;99929.69;;;13.81;74.80
65666;BME280;52365;47.464;18.976;2022-09-03T04:12:03;99934.16;;;13.84;74.82
65666;BME280;52365;47.464;18.976;2022-09-03T04:12:43;99933.44;;;13.84;74.92
65666;BME280;52365;47.464;18.976;2022-09-03T04:13:19;99937.88;;;13.87;75.05
65666;BME280;52365;47.464;18.976;2022-09-03T04:13:55;99942.09;;;13.88;75.02
65666;BME280;52365;47.464;18.976;2022-09-03T04:14:31;99937.44;;;13.89;74.91
65666;BME280;52365;47.464;18.976;2022-09-03T04:15:07;99947.03;;;13.90;74.84
65666;BME280;52365;47.464;18.976;2022-09-03T04:15:44;99937.44;;;13.89;74.80
65666;BME280;52365;47.464;18.976;2022-09-03T04:16:22;99939.84;;;13.86;74.77
65666;BME280;52365;47.464;18.976;2022-09-03T04:16:58;99939.84;;;13.86;74.92
65666;BME280;52365;47.464;18.976;2022-09-03T04:17:35;99946.97;;;13.84;74.69
65666;BME280;52365;47.464;18.976;2022-09-03T04:18:11;99942.97;;;13.79;74.39
65666;BME280;52365;47.464;18.976;2022-09-03T04:18:47;99948.66;;;13.81;74.46
65666;BME280;52365;47.464;18.976;2022-09-03T04:19:24;99949.13;;;13.80;74.66
65666;BME280;52365;47.464;18.976;2022-09-03T04:20:00;99942.00;;;13.82;74.78
65666;BME280;52365;47.464;18.976;2022-09-03T04:20:36;99945.94;;;13.81;74.81
65666;BME280;52365;47.464;18.976;2022-09-03T04:21:15;99943.50;;;13.83;74.90
65666;BME280;52365;47.464;18.976;2022-09-03T04:21:51;99942.28;;;13.84;74.96
65666;BME280;52365;47.464;18.976;2022-09-03T04:22:28;99948.72;;;13.87;75.11
65666;BME280;52365;47.464;18.976;2022-09-03T04:23:04;99942.56;;;13.86;75.23
65666;BME280;52365;47.464;18.976;2022-09-03T04:23:42;99949.50;;;13.88;75.24
65666;BME280;52365;47.464;18.976;2022-09-03T04:24:19;99936.19;;;13.90;75.30
65666;BME280;52365;47.464;18.976;2022-09-03T04:24:55;99938.91;;;13.90;75.32